Bushy Park, Australia
Current Conditions -  °F | °C
As of 12:30 AM on Sunday 21 Dec 2014 (Local Time) from YMHB Reporting Station
Broken Clouds Broken Clouds  
Wind Chill: 14°   Ceiling: 2400
Heat Index: 14°   Visibility: 6mi
Dew Point:   Wind: 6mph
Humidity: 67%   Direction: 60°ENE
Pressure: 30"   Gusts: NA
Location:  42.7°S, 146.88°E
Report Text: YMHB 201330Z 06005KT 9999 BKN024 14/08 Q1016
Loading
Personal Weather Stations






























Interactive Weather Map New forecast layout! Learn more

10-Day Weather Forecast

Advertisements
Track Severe Weather on mobile